createdAt,value
2024-01-06T00:01:17.860Z,100482.53
2024-01-06T00:03:44.831Z,100477.16
2024-01-06T00:06:15.111Z,100455.72
2024-01-06T00:08:41.883Z,100442.03
2024-01-06T00:11:08.577Z,100461.91
2024-01-06T00:13:35.349Z,100468.63
2024-01-06T00:16:02.392Z,100458.78
2024-01-06T00:18:29.298Z,100438.09
2024-01-06T00:20:56.123Z,100438.94
2024-01-06T00:23:22.812Z,100438.53
2024-01-06T00:25:49.445Z,100457.09
2024-01-06T00:28:16.054Z,100455.53
2024-01-06T00:30:42.805Z,100471.06
2024-01-06T00:33:09.602Z,100463.50
2024-01-06T00:35:36.341Z,100472.16
2024-01-06T00:38:03.569Z,100483.69
2024-01-06T00:40:30.193Z,100490.34
2024-01-06T00:42:56.862Z,100494.91
2024-01-06T00:45:23.788Z,100515.72
2024-01-06T00:47:50.728Z,100511.41
2024-01-06T00:50:20.386Z,100524.75
2024-01-06T00:52:48.101Z,100534.31
2024-01-06T00:55:14.820Z,100559.44
2024-01-06T00:57:41.546Z,100574.44
2024-01-06T01:00:08.505Z,100580.19
2024-01-06T01:02:37.317Z,100597.41
2024-01-06T01:05:08.965Z,100605.72
2024-01-06T01:07:35.961Z,100607.41
2024-01-06T01:10:02.631Z,100615.47
2024-01-06T01:12:29.414Z,100598.09
2024-01-06T01:14:56.121Z,100566.38
2024-01-06T01:17:24.045Z,100539.78
2024-01-06T01:19:52.339Z,100506.59
2024-01-06T01:22:19.113Z,100489.84
2024-01-06T01:24:45.797Z,100483.28
2024-01-06T01:27:12.657Z,100488.88
2024-01-06T01:29:39.304Z,100476.22
2024-01-06T01:32:06.499Z,100478.72
2024-01-06T01:34:33.283Z,100471.97
2024-01-06T01:37:00.869Z,100472.94
2024-01-06T01:39:27.556Z,100469.78
2024-01-06T01:41:54.408Z,100474.41
2024-01-06T01:44:21.036Z,100486.81
2024-01-06T01:46:47.712Z,100493.44
2024-01-06T01:49:14.607Z,100520.84
2024-01-06T01:51:41.422Z,100528.06
2024-01-06T01:54:08.693Z,100534.72
2024-01-06T01:56:35.842Z,100542.50
2024-01-06T01:59:14.998Z,100545.16
2024-01-06T02:01:41.866Z,100536.81
2024-01-06T02:04:09.460Z,100526.66
2024-01-06T02:06:36.328Z,100517.66
2024-01-06T02:09:03.560Z,100515.25
2024-01-06T02:11:30.253Z,100501.94
2024-01-06T02:13:56.838Z,100489.22
2024-01-06T02:16:23.714Z,100476.56
2024-01-06T02:18:50.783Z,100465.31
2024-01-06T02:21:18.722Z,100461.28
2024-01-06T02:23:45.356Z,100456.53
2024-01-06T02:26:12.827Z,100449.13
2024-01-06T02:28:39.503Z,100439.16
2024-01-06T02:31:06.298Z,100449.44
2024-01-06T02:33:33.178Z,100446.69
2024-01-06T02:35:59.991Z,100444.44
2024-01-06T02:38:26.694Z,100444.22
2024-01-06T02:40:53.435Z,100451.97
2024-01-06T02:43:20.121Z,100454.47
2024-01-06T02:45:48.353Z,100455.44
2024-01-06T02:48:15.270Z,100468.44
2024-01-06T02:50:42.081Z,100473.75
2024-01-06T02:53:10.886Z,100473.56
2024-01-06T02:55:37.611Z,100467.28
2024-01-06T02:58:04.407Z,100471.50
2024-01-06T03:00:31.105Z,100477.66
2024-01-06T03:02:57.850Z,100476.69
2024-01-06T03:05:24.613Z,100485.47
2024-01-06T03:07:51.256Z,100486.22
2024-01-06T03:10:18.015Z,100500.34
2024-01-06T03:12:44.719Z,100507.22
2024-01-06T03:15:12.706Z,100504.44
2024-01-06T03:17:39.603Z,100510.59
2024-01-06T03:20:06.719Z,100515.03
2024-01-06T03:22:33.570Z,100530.81
2024-01-06T03:25:00.254Z,100536.94
2024-01-06T03:27:27.078Z,100535.19
2024-01-06T03:29:53.684Z,100527.97
2024-01-06T03:32:20.463Z,100531.47
2024-01-06T03:34:47.237Z,100529.44
2024-01-06T03:37:14.217Z,100529.44
2024-01-06T03:39:40.868Z,100523.19
2024-01-06T03:42:07.628Z,100512.47
2024-01-06T03:44:34.940Z,100496.59
2024-01-06T03:47:01.720Z,100484.81
2024-01-06T03:49:28.983Z,100476.88
2024-01-06T03:51:56.208Z,100472.41
2024-01-06T03:54:23.779Z,100482.38
2024-01-06T03:56:50.538Z,100469.03
2024-01-06T03:59:17.553Z,100470.84
2024-01-06T04:01:44.322Z,100474.03
2024-01-06T04:04:11.157Z,100456.84
2024-01-06T04:06:37.920Z,100456.84
2024-01-06T04:09:04.690Z,100454.81
2024-01-06T04:11:31.439Z,100452.28
2024-01-06T04:13:58.140Z,100457.38
2024-01-06T04:16:24.796Z,100459.50
2024-01-06T04:18:51.743Z,100467.22
2024-01-06T04:21:18.488Z,100483.56
2024-01-06T04:23:45.115Z,100487.16
2024-01-06T04:26:11.846Z,100495.75
2024-01-06T04:28:38.441Z,100510.78
2024-01-06T04:31:06.233Z,100526.50
2024-01-06T04:33:34.418Z,100532.09
2024-01-06T04:36:02.947Z,100544.69
2024-01-06T04:38:29.660Z,100549.25
2024-01-06T04:40:56.652Z,100560.59
2024-01-06T04:43:23.276Z,100576.69
2024-01-06T04:45:52.821Z,100573.84
2024-01-06T04:48:19.765Z,100591.53
2024-01-06T04:50:46.529Z,100598.09
2024-01-06T04:53:13.197Z,100607.44
2024-01-06T04:55:39.962Z,100605.06
2024-01-06T04:58:06.592Z,100610.38
2024-01-06T05:00:33.612Z,100612.91
2024-01-06T05:03:00.395Z,100623.50
2024-01-06T05:05:27.106Z,100646.91
2024-01-06T05:07:53.822Z,100658.47
2024-01-06T05:10:20.476Z,100653.38
2024-01-06T05:12:47.214Z,100663.13
2024-01-06T05:15:13.949Z,100672.22
2024-01-06T05:17:40.863Z,100686.59
2024-01-06T05:20:08.142Z,100682.97
2024-01-06T05:22:34.806Z,100675.16
2024-01-06T05:25:01.470Z,100677.56
2024-01-06T05:27:28.143Z,100667.41
2024-01-06T05:29:54.800Z,100670.81
2024-01-06T05:32:21.626Z,100675.91
2024-01-06T05:34:49.646Z,100684.03
2024-01-06T05:37:16.584Z,100691.47
2024-01-06T05:39:43.360Z,100706.06
2024-01-06T05:42:12.492Z,100716.16
2024-01-06T05:44:39.192Z,100725.47
2024-01-06T05:47:05.919Z,100746.38
2024-01-06T05:49:32.650Z,100761.97
2024-01-06T05:52:01.078Z,100773.13
2024-01-06T05:54:27.855Z,100787.31
2024-01-06T05:56:54.555Z,100803.19
2024-01-06T05:59:21.248Z,100821.81
2024-01-06T06:01:47.987Z,100834.75
2024-01-06T06:04:14.685Z,100848.69
2024-01-06T06:06:41.411Z,100855.19
2024-01-06T06:09:08.398Z,100847.25
2024-01-06T06:11:35.393Z,100845.28
2024-01-06T06:14:04.110Z,100848.97
2024-01-06T06:16:31.234Z,100853.03
2024-01-06T06:18:58.186Z,100855.09
2024-01-06T06:21:25.030Z,100856.13
2024-01-06T06:23:51.814Z,100861.31
2024-01-06T06:26:18.773Z,100876.97
2024-01-06T06:28:45.391Z,100879.16
2024-01-06T06:31:12.667Z,100880.75
2024-01-06T06:33:40.696Z,100875.25
2024-01-06T06:36:07.801Z,100877.81
2024-01-06T06:38:34.496Z,100869.97
2024-01-06T06:41:01.903Z,100867.25
2024-01-06T06:43:28.981Z,100868.69
2024-01-06T06:45:56.853Z,100871.34
2024-01-06T06:48:23.641Z,100881.97
2024-01-06T06:50:50.528Z,100882.75
2024-01-06T06:53:17.218Z,100882.66
2024-01-06T06:55:43.952Z,100884.00
2024-01-06T06:58:10.683Z,100879.53
2024-01-06T07:00:38.207Z,100884.44
2024-01-06T07:03:05.003Z,100880.22
2024-01-06T07:05:31.773Z,100882.88
2024-01-06T07:08:00.990Z,100892.69
2024-01-06T07:10:27.761Z,100894.28
2024-01-06T07:12:54.640Z,100902.13
2024-01-06T07:15:21.719Z,100911.75
2024-01-06T07:17:48.506Z,100929.50
2024-01-06T07:20:15.244Z,100925.09
2024-01-06T07:22:42.346Z,100944.34
2024-01-06T07:25:09.081Z,100964.88
2024-01-06T07:27:35.825Z,100972.41
2024-01-06T07:30:02.693Z,100971.47
2024-01-06T07:32:32.484Z,100985.47
2024-01-06T07:34:59.282Z,100991.78
2024-01-06T07:37:26.883Z,101011.31
2024-01-06T07:39:53.719Z,101010.97
2024-01-06T07:42:20.552Z,101022.13
2024-01-06T07:44:47.232Z,101048.94
2024-01-06T07:47:13.834Z,101059.78
2024-01-06T07:49:40.638Z,101079.72
2024-01-06T07:52:07.320Z,101077.75
2024-01-06T07:54:34.092Z,101072.38
2024-01-06T07:57:00.774Z,101092.94
2024-01-06T07:59:27.589Z,101093.53
2024-01-06T08:01:54.348Z,101100.22
2024-01-06T08:04:21.103Z,101115.97
2024-01-06T08:06:47.994Z,101126.38
2024-01-06T08:09:14.722Z,101134.75
2024-01-06T08:11:41.603Z,101138.03
2024-01-06T08:14:08.312Z,101159.06
2024-01-06T08:16:35.066Z,101163.31
2024-01-06T08:19:01.843Z,101171.25
2024-01-06T08:21:29.066Z,101185.59
2024-01-06T08:23:56.990Z,101183.88
2024-01-06T08:26:23.874Z,101186.63
2024-01-06T08:28:50.557Z,101184.22
2024-01-06T08:31:17.318Z,101192.75
2024-01-06T08:33:44.176Z,101215.63
2024-01-06T08:36:10.908Z,101222.81
2024-01-06T08:38:37.516Z,101227.81
2024-01-06T08:41:04.326Z,101237.97
2024-01-06T08:43:30.947Z,101231.47
2024-01-06T08:45:58.167Z,101226.97
2024-01-06T08:48:25.198Z,101236.06
2024-01-06T08:50:52.198Z,101239.56
2024-01-06T08:53:18.882Z,101231.19
2024-01-06T08:55:47.397Z,101247.28
2024-01-06T08:58:14.500Z,101243.88
2024-01-06T09:00:41.316Z,101247.16
2024-01-06T09:03:08.470Z,101249.34
2024-01-06T09:05:35.366Z,101253.66
2024-01-06T09:08:02.197Z,101256.06
2024-01-06T09:10:30.338Z,101253.59
2024-01-06T09:12:57.874Z,101261.59
2024-01-06T09:15:24.860Z,101272.03
2024-01-06T09:17:51.671Z,101274.94
2024-01-06T09:20:19.015Z,101273.47
2024-01-06T09:22:45.681Z,101281.84
2024-01-06T09:25:14.177Z,101289.63
2024-01-06T09:27:40.862Z,101298.34
2024-01-06T09:30:09.523Z,101301.13
2024-01-06T09:32:36.285Z,101307.44
2024-01-06T09:35:03.227Z,101315.69
2024-01-06T09:37:29.977Z,101318.41
2024-01-06T09:39:56.672Z,101326.97
2024-01-06T09:42:23.435Z,101321.94
2024-01-06T09:44:50.120Z,101324.66
2024-01-06T09:47:19.304Z,101333.28
2024-01-06T09:49:50.316Z,101329.69
2024-01-06T09:52:21.991Z,101332.41
2024-01-06T09:54:52.992Z,101327.44
2024-01-06T09:57:19.809Z,101335.28
2024-01-06T09:59:47.252Z,101340.25
2024-01-06T10:02:15.782Z,101342.59
2024-01-06T10:04:43.554Z,101350.59
2024-01-06T10:07:13.554Z,101353.22
2024-01-06T10:09:41.622Z,101355.97
2024-01-06T10:12:08.693Z,101358.63
2024-01-06T10:14:35.479Z,101364.44
2024-01-06T10:17:02.149Z,101369.75
2024-01-06T10:19:28.902Z,101371.09
2024-01-06T10:21:56.249Z,101374.72
2024-01-06T10:24:23.014Z,101364.41
2024-01-06T10:26:50.030Z,101339.66
2024-01-06T10:29:16.796Z,101341.16
2024-01-06T10:31:43.851Z,101339.56
2024-01-06T10:34:10.850Z,101357.66
2024-01-06T10:36:37.960Z,101349.19
2024-01-06T10:39:04.800Z,101350.25
2024-01-06T10:41:32.068Z,101367.22
2024-01-06T10:44:00.612Z,101347.22
2024-01-06T10:46:27.646Z,101334.53
2024-01-06T10:48:56.482Z,101332.75
2024-01-06T10:51:24.418Z,101336.22
2024-01-06T10:53:51.246Z,101331.69
2024-01-06T10:56:18.052Z,101340.56
2024-01-06T10:58:49.387Z,101347.66
2024-01-06T11:01:21.092Z,101349.78
2024-01-06T11:03:49.263Z,101348.44
2024-01-06T11:06:18.672Z,101353.72
2024-01-06T11:08:50.690Z,101349.28
2024-01-06T11:11:21.013Z,101354.16
2024-01-06T11:13:50.536Z,101351.00
2024-01-06T11:16:38.839Z,101362.63
2024-01-06T11:19:25.569Z,101366.22
2024-01-06T11:21:52.442Z,101368.75
2024-01-06T11:24:26.113Z,101374.94
2024-01-06T11:26:53.551Z,101380.66
2024-01-06T11:29:23.530Z,101366.19
2024-01-06T11:32:09.074Z,101370.81
2024-01-06T11:34:38.371Z,101379.31
2024-01-06T11:37:06.949Z,101377.88
2024-01-06T11:39:42.215Z,101379.47
2024-01-06T11:42:11.581Z,101377.28
2024-01-06T11:44:39.519Z,101364.31
2024-01-06T11:47:07.108Z,101370.53
2024-01-06T11:49:33.883Z,101368.34
2024-01-06T11:52:02.488Z,101370.97
2024-01-06T11:54:29.254Z,101371.50
2024-01-06T11:56:58.560Z,101363.47
2024-01-06T11:59:25.467Z,101362.81
2024-01-06T12:01:52.907Z,101365.00
2024-01-06T12:04:19.849Z,101361.59
2024-01-06T12:06:47.541Z,101362.00
2024-01-06T12:09:17.332Z,101352.25
2024-01-06T12:11:48.185Z,101354.06
2024-01-06T12:14:14.942Z,101349.00
2024-01-06T12:16:41.648Z,101353.19
2024-01-06T12:19:08.458Z,101348.16
2024-01-06T12:21:39.131Z,101354.28
2024-01-06T12:24:22.112Z,101341.06
2024-01-06T12:26:48.999Z,101340.03
2024-01-06T12:29:16.931Z,101330.28
2024-01-06T12:31:45.060Z,101335.75
2024-01-06T12:34:12.184Z,101336.94
2024-01-06T12:36:40.147Z,101346.41
2024-01-06T12:39:11.150Z,101341.81
2024-01-06T12:41:39.209Z,101351.94
2024-01-06T12:44:05.943Z,101363.72
2024-01-06T12:46:32.669Z,101366.00
2024-01-06T12:48:59.494Z,101386.28
2024-01-06T12:51:26.332Z,101393.28
2024-01-06T12:53:53.314Z,101395.34
2024-01-06T12:56:20.552Z,101398.78
2024-01-06T12:58:47.185Z,101386.44
2024-01-06T13:01:13.983Z,101393.47
2024-01-06T13:03:40.744Z,101397.31
2024-01-06T13:06:07.558Z,101395.53
2024-01-06T13:08:34.401Z,101392.78
2024-01-06T13:11:01.190Z,101396.75
2024-01-06T13:13:27.814Z,101394.00
2024-01-06T13:15:55.317Z,101395.72
2024-01-06T13:18:22.329Z,101394.84
2024-01-06T13:20:49.301Z,101387.25
2024-01-06T13:23:16.638Z,101395.03
2024-01-06T13:25:43.680Z,101400.41
2024-01-06T13:28:10.358Z,101399.75
2024-01-06T13:30:37.930Z,101400.94
2024-01-06T13:33:04.938Z,101404.63
2024-01-06T13:35:32.539Z,101402.25
2024-01-06T13:37:59.163Z,101401.13
2024-01-06T13:40:26.090Z,101401.47
2024-01-06T13:42:53.705Z,101393.41
2024-01-06T13:45:20.917Z,101396.34
2024-01-06T13:47:48.004Z,101383.84
2024-01-06T13:50:18.376Z,101381.47
2024-01-06T13:52:46.587Z,101374.50
2024-01-06T13:55:13.286Z,101365.91
2024-01-06T13:57:42.613Z,101368.72
2024-01-06T14:00:10.412Z,101374.63
2024-01-06T14:02:39.194Z,101375.75
2024-01-06T14:05:10.927Z,101364.13
2024-01-06T14:07:39.686Z,101382.59
2024-01-06T14:10:06.792Z,101383.59
2024-01-06T14:12:33.579Z,101388.03
2024-01-06T14:15:02.577Z,101388.13
2024-01-06T14:17:29.336Z,101393.25
2024-01-06T14:19:55.992Z,101402.41
2024-01-06T14:22:22.682Z,101404.97
2024-01-06T14:24:49.382Z,101415.72
2024-01-06T14:27:16.194Z,101424.63
2024-01-06T14:29:42.951Z,101416.59
2024-01-06T14:32:09.711Z,101424.97
2024-01-06T14:34:36.397Z,101424.63
2024-01-06T14:37:03.297Z,101425.81
2024-01-06T14:39:30.082Z,101440.03
2024-01-06T14:41:56.695Z,101442.69
2024-01-06T14:44:23.378Z,101446.34
2024-01-06T14:46:51.844Z,101451.72
2024-01-06T14:49:18.711Z,101452.06
2024-01-06T14:51:46.803Z,101439.66
2024-01-06T14:54:13.453Z,101452.06
2024-01-06T14:56:41.074Z,101447.88
2024-01-06T14:59:08.314Z,101456.78
2024-01-06T15:01:35.316Z,101454.47
2024-01-06T15:04:02.206Z,101453.69
2024-01-06T15:06:29.162Z,101453.44
2024-01-06T15:08:55.984Z,101451.97
2024-01-06T15:11:22.744Z,101455.56
2024-01-06T15:13:49.443Z,101460.50
2024-01-06T15:16:16.245Z,101456.91
2024-01-06T15:18:43.044Z,101460.34
2024-01-06T15:21:09.762Z,101472.97
2024-01-06T15:23:36.464Z,101471.41
2024-01-06T15:26:05.035Z,101482.00
2024-01-06T15:28:33.624Z,101479.53
2024-01-06T15:31:01.462Z,101490.50
2024-01-06T15:33:28.555Z,101493.34
2024-01-06T15:35:55.430Z,101491.53
2024-01-06T15:38:22.145Z,101494.19
2024-01-06T15:40:49.178Z,101500.75
2024-01-06T15:43:15.967Z,101501.59
2024-01-06T15:45:42.861Z,101505.34
2024-01-06T15:48:09.804Z,101510.63
2024-01-06T15:50:36.624Z,101510.81
2024-01-06T15:53:03.321Z,101513.44
2024-01-06T15:55:30.075Z,101518.34
2024-01-06T15:57:56.866Z,101516.00
2024-01-06T16:00:23.753Z,101517.63
2024-01-06T16:02:52.927Z,101524.66
2024-01-06T16:05:19.950Z,101512.91
2024-01-06T16:07:46.671Z,101504.63
2024-01-06T16:10:13.512Z,101505.50
2024-01-06T16:12:42.311Z,101504.72
2024-01-06T16:15:09.298Z,101501.84
2024-01-06T16:17:36.027Z,101513.28
2024-01-06T16:20:06.586Z,101512.97
2024-01-06T16:22:34.008Z,101522.94
2024-01-06T16:25:00.917Z,101528.22
2024-01-06T16:27:27.681Z,101532.75
2024-01-06T16:29:54.483Z,101524.03
2024-01-06T16:32:22.467Z,101538.25
2024-01-06T16:34:49.401Z,101549.47
2024-01-06T16:37:20.424Z,101548.47
2024-01-06T16:39:47.158Z,101558.09
2024-01-06T16:42:13.797Z,101565.06
2024-01-06T16:44:40.469Z,101577.72
2024-01-06T16:47:07.211Z,101600.84
2024-01-06T16:49:34.117Z,101594.91
2024-01-06T16:52:01.006Z,101601.25
2024-01-06T16:54:27.857Z,101594.53
2024-01-06T16:56:54.556Z,101606.91
2024-01-06T16:59:21.220Z,101617.56
2024-01-06T17:01:48.071Z,101626.56
2024-01-06T17:04:14.887Z,101636.53
2024-01-06T17:06:41.687Z,101641.03
2024-01-06T17:09:08.452Z,101631.25
2024-01-06T17:11:35.109Z,101631.94
2024-01-06T17:14:02.195Z,101630.94
2024-01-06T17:16:28.890Z,101624.41
2024-01-06T17:18:55.839Z,101626.03
2024-01-06T17:21:22.769Z,101627.38
2024-01-06T17:23:52.008Z,101632.66
2024-01-06T17:26:18.771Z,101650.09
2024-01-06T17:28:45.381Z,101655.63
2024-01-06T17:31:12.182Z,101677.88
2024-01-06T17:33:38.951Z,101671.56
2024-01-06T17:36:05.978Z,101684.03
2024-01-06T17:38:32.670Z,101688.53
2024-01-06T17:40:59.460Z,101682.78
2024-01-06T17:43:26.124Z,101686.19
2024-01-06T17:45:52.841Z,101682.63
2024-01-06T17:48:19.836Z,101686.03
2024-01-06T17:50:47.088Z,101686.97
2024-01-06T17:53:13.773Z,101690.31
2024-01-06T17:55:40.988Z,101679.81
2024-01-06T17:58:07.694Z,101691.41
2024-01-06T18:00:34.685Z,101692.13
2024-01-06T18:03:01.338Z,101690.50
2024-01-06T18:05:28.138Z,101690.41
2024-01-06T18:07:54.921Z,101709.06
2024-01-06T18:10:21.761Z,101714.38
2024-01-06T18:12:48.571Z,101717.25
2024-01-06T18:15:15.341Z,101724.50
2024-01-06T18:17:42.065Z,101726.97
2024-01-06T18:20:09.581Z,101736.16
2024-01-06T18:22:36.253Z,101728.16
2024-01-06T18:25:04.241Z,101732.38
2024-01-06T18:27:31.594Z,101728.97
2024-01-06T18:29:58.552Z,101725.25
2024-01-06T18:32:25.241Z,101714.59
2024-01-06T18:34:51.985Z,101712.78
2024-01-06T18:37:18.717Z,101709.06
2024-01-06T18:39:45.442Z,101709.06
2024-01-06T18:42:15.091Z,101715.00
2024-01-06T18:44:41.953Z,101717.50
2024-01-06T18:47:12.914Z,101717.34
2024-01-06T18:49:41.444Z,101726.53
2024-01-06T18:52:08.341Z,101733.38
2024-01-06T18:54:41.893Z,101725.94
2024-01-06T18:57:13.248Z,101721.50
2024-01-06T18:59:40.530Z,101725.78
2024-01-06T19:02:08.441Z,101710.50
2024-01-06T19:04:35.375Z,101716.28
2024-01-06T19:07:02.254Z,101712.44
2024-01-06T19:09:29.796Z,101728.31
2024-01-06T19:11:56.952Z,101723.25
2024-01-06T19:14:23.746Z,101738.22
2024-01-06T19:16:51.638Z,101750.22
2024-01-06T19:19:21.883Z,101766.25
2024-01-06T19:21:50.495Z,101776.22
2024-01-06T19:24:27.291Z,101784.84
2024-01-06T19:26:59.435Z,101791.94
2024-01-06T19:29:27.299Z,101806.81
2024-01-06T19:31:54.441Z,101797.31
2024-01-06T19:34:21.284Z,101796.09
2024-01-06T19:36:48.914Z,101797.03
2024-01-06T19:39:15.743Z,101807.53
2024-01-06T19:41:42.394Z,101804.34
2024-01-06T19:44:10.667Z,101820.16
2024-01-06T19:46:37.493Z,101830.03
2024-01-06T19:49:04.283Z,101828.31
2024-01-06T19:51:31.339Z,101836.25
2024-01-06T19:53:59.155Z,101834.56
2024-01-06T19:56:25.825Z,101837.91
2024-01-06T19:58:52.435Z,101843.13
2024-01-06T20:01:19.285Z,101843.41
2024-01-06T20:03:46.078Z,101842.34
2024-01-06T20:06:14.205Z,101850.50
2024-01-06T20:08:40.849Z,101853.03
2024-01-06T20:11:07.521Z,101849.38
2024-01-06T20:13:34.668Z,101856.59
2024-01-06T20:16:02.839Z,101857.53
2024-01-06T20:18:31.132Z,101858.47
2024-01-06T20:20:59.238Z,101863.97
2024-01-06T20:23:25.981Z,101867.13
2024-01-06T20:25:52.702Z,101866.53
2024-01-06T20:28:19.363Z,101865.97
2024-01-06T20:30:46.204Z,101868.25
2024-01-06T20:33:16.186Z,101870.97
2024-01-06T20:35:44.031Z,101867.94
2024-01-06T20:38:10.639Z,101867.22
2024-01-06T20:40:37.323Z,101861.78
2024-01-06T20:43:04.020Z,101855.69
2024-01-06T20:45:30.738Z,101851.94
2024-01-06T20:47:57.470Z,101839.69
2024-01-06T20:50:24.370Z,101829.63
2024-01-06T20:52:51.024Z,101837.84
2024-01-06T20:55:18.174Z,101836.91
2024-01-06T20:57:44.925Z,101834.25
2024-01-06T21:00:11.754Z,101837.13
2024-01-06T21:02:38.568Z,101835.19
2024-01-06T21:05:06.094Z,101841.56
2024-01-06T21:07:33.112Z,101841.41
2024-01-06T21:10:04.661Z,101842.19
2024-01-06T21:12:36.310Z,101843.56
2024-01-06T21:15:03.109Z,101853.84
2024-01-06T21:17:30.046Z,101861.06
2024-01-06T21:19:56.830Z,101864.09
2024-01-06T21:22:23.484Z,101863.94
2024-01-06T21:24:52.951Z,101872.13
2024-01-06T21:27:19.768Z,101879.25
2024-01-06T21:29:46.485Z,101873.31
2024-01-06T21:32:13.109Z,101870.91
2024-01-06T21:34:39.950Z,101865.53
2024-01-06T21:37:06.892Z,101865.03
2024-01-06T21:39:33.746Z,101870.38
2024-01-06T21:42:00.865Z,101879.84
2024-01-06T21:44:27.539Z,101871.78
2024-01-06T21:46:54.315Z,101873.63
2024-01-06T21:49:21.442Z,101883.50
2024-01-06T21:51:49.038Z,101893.00
2024-01-06T21:54:16.955Z,101893.28
2024-01-06T21:56:46.881Z,101892.75
2024-01-06T21:59:14.424Z,101903.59
2024-01-06T22:01:41.872Z,101910.13
2024-01-06T22:04:09.245Z,101910.19
2024-01-06T22:06:35.943Z,101901.47
2024-01-06T22:09:10.615Z,101897.75
2024-01-06T22:11:39.701Z,101899.75
2024-01-06T22:14:06.337Z,101893.78
2024-01-06T22:16:33.008Z,101892.88
2024-01-06T22:18:59.757Z,101892.97
2024-01-06T22:21:26.583Z,101895.97
2024-01-06T22:23:54.119Z,101894.13
2024-01-06T22:26:20.828Z,101901.44
2024-01-06T22:28:47.642Z,101900.09
2024-01-06T22:31:14.734Z,101894.81
2024-01-06T22:33:41.510Z,101896.66
2024-01-06T22:36:12.193Z,101896.97
2024-01-06T22:38:48.138Z,101894.94
2024-01-06T22:41:21.720Z,101894.56
2024-01-06T22:43:48.659Z,101902.56
2024-01-06T22:46:15.376Z,101902.66
2024-01-06T22:48:42.227Z,101909.38
2024-01-06T22:51:10.137Z,101916.41
2024-01-06T22:53:37.049Z,101921.84
2024-01-06T22:56:04.464Z,101918.22
2024-01-06T22:58:31.704Z,101928.78
2024-01-06T23:00:59.520Z,101935.72
2024-01-06T23:03:26.641Z,101927.69
2024-01-06T23:05:53.794Z,101941.00
2024-01-06T23:08:21.539Z,101947.16
2024-01-06T23:10:48.638Z,101949.16
2024-01-06T23:13:15.392Z,101947.66
2024-01-06T23:15:42.559Z,101941.00
2024-01-06T23:18:09.433Z,101950.84
2024-01-06T23:20:36.241Z,101959.31
2024-01-06T23:23:02.884Z,101959.69
2024-01-06T23:25:29.535Z,101958.69
2024-01-06T23:27:56.151Z,101965.81
2024-01-06T23:30:23.192Z,101972.16
2024-01-06T23:32:50.171Z,101981.56
2024-01-06T23:35:17.216Z,101996.81
2024-01-06T23:37:44.804Z,102000.13
2024-01-06T23:40:12.100Z,101998.53
2024-01-06T23:42:38.982Z,102002.16
2024-01-06T23:45:05.858Z,101995.06
2024-01-06T23:47:32.519Z,101987.16
2024-01-06T23:49:59.449Z,101989.00
2024-01-06T23:52:26.976Z,101998.91
2024-01-06T23:54:54.578Z,101992.63
2024-01-06T23:57:21.340Z,101997.97
2024-01-06T23:59:47.975Z,102000.72
